WebCam

  
Kamera Halle
Kamera Vorfeld
Wetter EDDS

METAR

EDDS 200220Z VRB02KT 9999 SCT034 BKN060 11/10 Q1003 =
EDDS 192300Z 2000/2024 VRB03KT 9999 SCT010 BKN030 TEMPO 2000/2007 04009KT 4000 TSRA BKN009 SCT030CB BECMG 2006/2008 29007KT BKN010 BECMG 2009/2011 30012KT SCT015 TEMPO 2010/2020 4500 TSRA BKN012 BKN020CB PROB30 TEMPO 2012/2019 33015G25KT 2000 +TSRAGR BKN009 BKN015CB TEMPO 2020/2024 2500 +SHRA BKN009 BKN020CB


TAF

EDDS 192300Z 2000/2024 VRB03KT 9999 SCT010 BKN030 TEMPO 2000/2007 04009KT 4000 TSRA BKN009 SCT030CB BECMG 2006/2008 29007KT BKN010 BECMG 2009/2011 30012KT SCT015 TEMPO 2010/2020 4500 TSRA BKN012 BKN020CB PROB30 TEMPO 2012/2019 33015G25KT 2000 +TSRAGR BKN009 BKN015CB TEMPO 2020/2024 2500 +SHRA BKN009 BKN020CB =


SR/SS

03:34 / 19:01 UTC
(EDSO 20-05-2019)